Time;durP1;ratioP1;P1;durP2;ratioP2;P2;SDS_P1;SDS_P2;PMS_P1;PMS_P2;Temp;Humidity;BMP_temperature;BMP_pressure;BME280_temperature;BME280_humidity;BME280_pressure;Samples;Min_cycle;Max_cycle;Signal;HPM_P1;HPM_P2
2023/05/25 00:01:37;;;;;;;15.30;6.47;;;;;;;;;;6339653;22;20192;-91
2023/05/25 02:54:37;;;;;;;19.13;6.25;;;;;;;;;;6277171;22;20296;-91
2023/05/25 02:57:43;;;;;;;13.70;5.15;;;;;;;;;;6325380;22;20592;-89
2023/05/25 03:00:54;;;;;;;15.13;5.50;;;;;;;;;;6327027;22;20168;-93
2023/05/25 03:03:59;;;;;;;16.58;5.55;;;;;;;;;;6325632;22;20227;-92
2023/05/25 03:07:06;;;;;;;12.13;5.88;;;;;;;;;;6324540;22;20221;-92
2023/05/25 03:10:14;;;;;;;17.67;5.50;;;;;;;;;;6325477;22;20167;-91
2023/05/25 03:13:19;;;;;;;17.48;5.10;;;;;;;;;;6325079;22;20274;-91
2023/05/25 03:16:26;;;;;;;18.23;5.45;;;;;;;;;;6307346;22;20617;-92
2023/05/25 03:19:32;;;;;;;11.02;4.68;;;;;;;;;;6325179;22;20214;-91
2023/05/25 03:23:10;;;;;;;13.10;5.03;;;;;;;;;;6324759;22;20222;-92
2023/05/25 03:26:18;;;;;;;18.50;5.25;;;;;;;;;;6325215;22;20192;-92
2023/05/25 03:29:27;;;;;;;17.33;5.60;;;;;;;;;;6326054;22;20166;-92
2023/05/25 03:32:33;;;;;;;13.20;5.25;;;;;;;;;;6324528;22;20525;-92
2023/05/25 03:35:38;;;;;;;13.60;4.63;;;;;;;;;;6324938;22;20241;-92
2023/05/25 03:38:44;;;;;;;14.80;6.07;;;;;;;;;;6308547;22;20172;-93
2023/05/25 03:41:51;;;;;;;18.45;5.25;;;;;;;;;;6306791;22;20668;-92
2023/05/25 03:44:58;;;;;;;14.25;4.22;;;;;;;;;;6326968;22;20177;-91
2023/05/25 03:48:03;;;;;;;19.83;4.03;;;;;;;;;;6324465;22;20247;-90
2023/05/25 03:51:10;;;;;;;12.63;3.65;;;;;;;;;;6325940;22;20193;-93
2023/05/25 03:54:15;;;;;;;11.25;4.40;;;;;;;;;;6308714;22;20237;-92
2023/05/25 03:57:23;;;;;;;16.65;4.30;;;;;;;;;;6325061;22;20180;-94
2023/05/25 04:00:30;;;;;;;21.60;4.90;;;;;;;;;;6325882;22;20144;-92
2023/05/25 04:03:35;;;;;;;17.80;4.55;;;;;;;;;;6326026;22;20160;-93
2023/05/25 04:06:41;;;;;;;11.52;3.75;;;;;;;;;;6325973;22;20225;-92
2023/05/25 04:09:47;;;;;;;8.82;4.20;;;;;;;;;;6308759;22;20492;-93
2023/05/25 04:12:55;;;;;;;13.68;4.28;;;;;;;;;;6326599;22;20255;-91
2023/05/25 04:16:01;;;;;;;12.05;4.53;;;;;;;;;;6326138;22;20168;-92
2023/05/25 04:19:08;;;;;;;12.68;4.57;;;;;;;;;;6326159;22;20158;-91
2023/05/25 04:22:15;;;;;;;11.23;4.10;;;;;;;;;;6324811;22;20149;-92
2023/05/25 04:25:22;;;;;;;18.20;5.13;;;;;;;;;;6324686;22;20193;-92
2023/05/25 04:28:29;;;;;;;17.13;5.10;;;;;;;;;;6325585;22;20211;-92
2023/05/25 04:31:42;;;;;;;13.13;5.03;;;;;;;;;;6328395;22;20193;-92
2023/05/25 04:34:51;;;;;;;16.73;5.38;;;;;;;;;;6325867;22;20220;-91
2023/05/25 04:38:05;;;;;;;20.35;4.97;;;;;;;;;;6308309;22;20165;-93
2023/05/25 04:41:11;;;;;;;12.65;4.88;;;;;;;;;;6325579;22;20169;-93
2023/05/25 04:44:18;;;;;;;15.43;4.53;;;;;;;;;;6324960;22;20654;-94
2023/05/25 04:47:39;;;;;;;17.77;4.18;;;;;;;;;;6326104;22;20184;-92
2023/05/25 04:54:04;;;;;;;11.60;4.25;;;;;;;;;;6326776;22;20227;-92
2023/05/25 04:57:11;;;;;;;13.25;3.67;;;;;;;;;;6307210;22;20153;-92
2023/05/25 05:00:19;;;;;;;12.90;4.45;;;;;;;;;;6325204;22;20148;-92
2023/05/25 05:03:26;;;;;;;17.80;4.95;;;;;;;;;;6307861;22;20149;-91
2023/05/25 05:06:35;;;;;;;11.93;4.30;;;;;;;;;;6308902;22;20212;-92
2023/05/25 05:09:41;;;;;;;17.10;4.25;;;;;;;;;;6327551;22;20165;-93
2023/05/25 05:12:48;;;;;;;14.95;4.57;;;;;;;;;;6328412;22;20192;-91
2023/05/25 05:15:58;;;;;;;13.32;4.25;;;;;;;;;;6328020;22;20173;-93
2023/05/25 05:19:05;;;;;;;20.45;4.20;;;;;;;;;;6328023;22;20197;-93
2023/05/25 05:22:28;;;;;;;11.15;3.55;;;;;;;;;;6325832;22;20169;-93
2023/05/25 05:25:36;;;;;;;15.65;3.97;;;;;;;;;;6309017;22;20582;-92
2023/05/25 05:28:43;;;;;;;15.80;3.95;;;;;;;;;;6308475;22;20476;-92
2023/05/25 05:31:52;;;;;;;11.43;3.78;;;;;;;;;;6327807;22;20145;-91
2023/05/25 05:34:58;;;;;;;18.42;4.30;;;;;;;;;;6327613;22;20603;-91
2023/05/25 05:38:20;;;;;;;14.57;4.10;;;;;;;;;;6327293;22;20211;-91
2023/05/25 05:44:46;;;;;;;21.02;4.25;;;;;;;;;;6328994;22;20184;-92
2023/05/25 14:01:09;;;;;;;5.90;2.50;;;;;;;;;;6274211;22;20208;-93
2023/05/25 14:04:16;;;;;;;5.38;2.25;;;;;;;;;;6328653;22;20164;-92
2023/05/25 14:07:22;;;;;;;7.47;3.00;;;;;;;;;;6328086;22;20253;-93
2023/05/25 14:10:28;;;;;;;6.28;2.63;;;;;;;;;;6326340;22;20215;-93
2023/05/25 14:13:35;;;;;;;7.10;2.53;;;;;;;;;;6326988;22;20165;-92
2023/05/25 14:16:42;;;;;;;5.82;2.40;;;;;;;;;;6307405;22;20220;-95
2023/05/25 14:19:48;;;;;;;4.00;2.20;;;;;;;;;;6327087;22;20172;-93
2023/05/25 14:26:23;;;;;;;6.47;2.47;;;;;;;;;;6308434;22;20216;-92
2023/05/25 14:29:29;;;;;;;6.15;2.30;;;;;;;;;;6326937;22;20176;-89
2023/05/25 14:32:36;;;;;;;2.92;2.05;;;;;;;;;;6327304;22;20168;-92
2023/05/25 14:35:55;;;;;;;6.00;2.47;;;;;;;;;;6308318;22;20180;-90
2023/05/25 14:49:23;;;;;;;4.47;2.38;;;;;;;;;;6327111;22;20152;-92
2023/05/25 14:52:35;;;;;;;9.13;3.10;;;;;;;;;;6327809;22;20180;-93
2023/05/25 14:55:40;;;;;;;8.00;2.58;;;;;;;;;;6309258;22;20168;-92
2023/05/25 15:02:05;;;;;;;10.15;4.70;;;;;;;;;;6325785;22;20180;-92
2023/05/25 22:13:36;;;;;;;14.85;7.03;;;;;;;;;;6249925;22;20214;-91
2023/05/25 22:20:14;;;;;;;11.35;6.20;;;;;;;;;;6323496;22;20212;-91
2023/05/25 22:23:20;;;;;;;11.80;6.13;;;;;;;;;;6323971;22;20174;-90
2023/05/25 22:26:25;;;;;;;15.90;7.22;;;;;;;;;;6324889;22;20180;-92
2023/05/25 22:29:32;;;;;;;12.35;6.55;;;;;;;;;;6307166;22;20173;-93
2023/05/25 22:32:37;;;;;;;14.93;6.47;;;;;;;;;;6326106;22;20176;-92
2023/05/25 22:35:42;;;;;;;9.82;5.88;;;;;;;;;;6324950;22;20162;-92
2023/05/25 22:38:47;;;;;;;12.05;6.47;;;;;;;;;;6324727;22;20173;-91
2023/05/25 22:41:53;;;;;;;16.45;7.03;;;;;;;;;;6322425;22;20169;-92
2023/05/25 22:45:00;;;;;;;13.32;6.70;;;;;;;;;;6323622;22;20161;-92
2023/05/25 22:48:05;;;;;;;15.35;6.60;;;;;;;;;;6324786;22;20197;-91
2023/05/25 22:51:11;;;;;;;18.90;7.30;;;;;;;;;;6325302;22;20196;-91
2023/05/25 22:54:18;;;;;;;16.13;6.78;;;;;;;;;;6326249;22;20169;-91
2023/05/25 22:57:23;;;;;;;13.32;7.15;;;;;;;;;;6323939;22;20165;-92
2023/05/25 23:00:30;;;;;;;12.23;6.68;;;;;;;;;;6326198;22;20148;-92
2023/05/25 23:03:35;;;;;;;15.07;6.55;;;;;;;;;;6324923;22;20168;-91
2023/05/25 23:06:40;;;;;;;13.95;6.57;;;;;;;;;;6308578;22;20197;-91
2023/05/25 23:09:45;;;;;;;12.48;6.30;;;;;;;;;;6324726;22;20211;-92
2023/05/25 23:12:53;;;;;;;12.95;7.22;;;;;;;;;;6324425;22;20212;-92
2023/05/25 23:15:59;;;;;;;15.95;6.80;;;;;;;;;;6323765;22;20500;-92
2023/05/25 23:19:04;;;;;;;12.88;6.88;;;;;;;;;;6322830;22;20194;-93
2023/05/25 23:22:10;;;;;;;11.93;6.30;;;;;;;;;;6325093;22;20157;-91
2023/05/25 23:25:15;;;;;;;17.23;7.28;;;;;;;;;;6325430;22;20237;-92
2023/05/25 23:28:28;;;;;;;12.98;6.88;;;;;;;;;;6324742;22;20564;-92
2023/05/25 23:31:35;;;;;;;15.50;7.40;;;;;;;;;;6326521;22;20239;-93
2023/05/25 23:34:40;;;;;;;13.90;7.10;;;;;;;;;;6324792;22;20168;-91
2023/05/25 23:37:46;;;;;;;17.55;7.68;;;;;;;;;;6326747;22;20141;-92
2023/05/25 23:40:52;;;;;;;15.82;7.97;;;;;;;;;;6326206;22;20160;-92
2023/05/25 23:43:57;;;;;;;15.85;8.15;;;;;;;;;;6305211;22;20189;-90
2023/05/25 23:47:04;;;;;;;14.18;7.82;;;;;;;;;;6323575;22;20176;-92
2023/05/25 23:50:10;;;;;;;14.38;8.18;;;;;;;;;;6304829;22;20209;-91
2023/05/25 23:53:16;;;;;;;18.90;8.43;;;;;;;;;;6305852;22;20157;-92
2023/05/25 23:56:21;;;;;;;19.02;8.45;;;;;;;;;;6324077;22;20494;-92
2023/05/25 23:59:26;;;;;;;22.00;9.00;;;;;;;;;;6323517;22;20252;-92
